sensor_id;sensor_type;location;lat;lon;timestamp;temperature;humidity
19060;DHT22;9663;48.996;8.334;2022-12-29T00:00:00;15.60;59.40
19060;DHT22;9663;48.996;8.334;2022-12-29T00:02:26;15.70;59.40
19060;DHT22;9663;48.996;8.334;2022-12-29T00:04:52;15.10;59.10
19060;DHT22;9663;48.996;8.334;2022-12-29T00:07:18;15.90;59.50
19060;DHT22;9663;48.996;8.334;2022-12-29T00:09:44;15.10;59.10
19060;DHT22;9663;48.996;8.334;2022-12-29T00:12:10;15.30;59.10
19060;DHT22;9663;48.996;8.334;2022-12-29T00:14:35;15.40;59.20
19060;DHT22;9663;48.996;8.334;2022-12-29T00:17:20;15.20;59.00
19060;DHT22;9663;48.996;8.334;2022-12-29T00:19:45;15.20;59.10
19060;DHT22;9663;48.996;8.334;2022-12-29T00:22:29;15.10;58.90
19060;DHT22;9663;48.996;8.334;2022-12-29T00:25:14;15.70;59.20
19060;DHT22;9663;48.996;8.334;2022-12-29T00:27:58;15.20;59.60
19060;DHT22;9663;48.996;8.334;2022-12-29T00:30:43;15.10;58.80
19060;DHT22;9663;48.996;8.334;2022-12-29T00:33:32;15.80;59.10
19060;DHT22;9663;48.996;8.334;2022-12-29T00:36:33;16.10;59.20
19060;DHT22;9663;48.996;8.334;2022-12-29T00:39:14;15.30;58.80
19060;DHT22;9663;48.996;8.334;2022-12-29T00:42:06;15.50;58.80
19060;DHT22;9663;48.996;8.334;2022-12-29T00:44:51;15.10;58.70
19060;DHT22;9663;48.996;8.334;2022-12-29T00:47:17;16.20;59.30
19060;DHT22;9663;48.996;8.334;2022-12-29T00:49:42;15.50;59.10
19060;DHT22;9663;48.996;8.334;2022-12-29T00:52:10;16.00;59.10
19060;DHT22;9663;48.996;8.334;2022-12-29T00:54:38;15.40;58.90
19060;DHT22;9663;48.996;8.334;2022-12-29T00:57:06;15.50;59.00
19060;DHT22;9663;48.996;8.334;2022-12-29T00:59:38;15.40;59.00
19060;DHT22;9663;48.996;8.334;2022-12-29T01:02:05;15.50;59.00
19060;DHT22;9663;48.996;8.334;2022-12-29T01:04:31;16.00;59.30
19060;DHT22;9663;48.996;8.334;2022-12-29T01:06:57;15.50;59.40
19060;DHT22;9663;48.996;8.334;2022-12-29T01:09:23;15.20;59.10
19060;DHT22;9663;48.996;8.334;2022-12-29T01:12:08;15.30;59.10
19060;DHT22;9663;48.996;8.334;2022-12-29T01:14:35;15.00;59.00
19060;DHT22;9663;48.996;8.334;2022-12-29T01:17:02;15.60;59.40
19060;DHT22;9663;48.996;8.334;2022-12-29T01:19:28;15.00;59.10
19060;DHT22;9663;48.996;8.334;2022-12-29T01:21:53;15.10;59.20
19060;DHT22;9663;48.996;8.334;2022-12-29T01:24:20;15.70;59.50
19060;DHT22;9663;48.996;8.334;2022-12-29T01:26:47;14.90;59.20
19060;DHT22;9663;48.996;8.334;2022-12-29T01:29:14;15.00;59.20
19060;DHT22;9663;48.996;8.334;2022-12-29T01:31:39;15.00;59.30
19060;DHT22;9663;48.996;8.334;2022-12-29T01:34:05;15.20;59.40
19060;DHT22;9663;48.996;8.334;2022-12-29T01:36:31;14.90;59.30
19060;DHT22;9663;48.996;8.334;2022-12-29T01:38:58;15.00;59.40
19060;DHT22;9663;48.996;8.334;2022-12-29T01:41:23;14.90;59.40
19060;DHT22;9663;48.996;8.334;2022-12-29T01:43:52;15.00;59.50
19060;DHT22;9663;48.996;8.334;2022-12-29T01:46:23;15.10;59.50
19060;DHT22;9663;48.996;8.334;2022-12-29T01:48:59;15.00;59.40
19060;DHT22;9663;48.996;8.334;2022-12-29T01:51:55;14.70;59.20
19060;DHT22;9663;48.996;8.334;2022-12-29T01:57:20;14.80;59.20
19060;DHT22;9663;48.996;8.334;2022-12-29T01:59:55;15.00;59.50
19060;DHT22;9663;48.996;8.334;2022-12-29T02:02:24;14.90;59.40
19060;DHT22;9663;48.996;8.334;2022-12-29T02:04:51;14.90;59.40
19060;DHT22;9663;48.996;8.334;2022-12-29T02:07:21;15.00;59.50
19060;DHT22;9663;48.996;8.334;2022-12-29T02:09:50;14.60;59.30
19060;DHT22;9663;48.996;8.334;2022-12-29T02:12:20;14.90;59.50
19060;DHT22;9663;48.996;8.334;2022-12-29T02:14:49;14.90;59.50
19060;DHT22;9663;48.996;8.334;2022-12-29T02:17:53;14.80;59.40
19060;DHT22;9663;48.996;8.334;2022-12-29T02:23:42;15.00;59.50
19060;DHT22;9663;48.996;8.334;2022-12-29T02:35:21;14.80;59.20
19060;DHT22;9663;48.996;8.334;2022-12-29T02:40:43;14.80;59.30
19060;DHT22;9663;48.996;8.334;2022-12-29T02:46:22;15.30;59.30
19060;DHT22;9663;48.996;8.334;2022-12-29T02:51:58;15.00;59.20
19060;DHT22;9663;48.996;8.334;2022-12-29T02:54:28;14.70;59.20
19060;DHT22;9663;48.996;8.334;2022-12-29T02:57:11;14.80;59.40
19060;DHT22;9663;48.996;8.334;2022-12-29T03:00:07;14.90;60.10
19060;DHT22;9663;48.996;8.334;2022-12-29T03:08:48;14.90;59.40
19060;DHT22;9663;48.996;8.334;2022-12-29T03:11:22;14.70;59.30
19060;DHT22;9663;48.996;8.334;2022-12-29T03:14:18;14.80;59.60
19060;DHT22;9663;48.996;8.334;2022-12-29T03:17:09;15.10;59.70
19060;DHT22;9663;48.996;8.334;2022-12-29T03:19:49;14.80;59.60
19060;DHT22;9663;48.996;8.334;2022-12-29T03:22:22;14.90;59.60
19060;DHT22;9663;48.996;8.334;2022-12-29T03:24:54;15.10;59.70
19060;DHT22;9663;48.996;8.334;2022-12-29T03:27:38;15.00;59.70
19060;DHT22;9663;48.996;8.334;2022-12-29T03:30:07;15.10;59.60
19060;DHT22;9663;48.996;8.334;2022-12-29T03:32:42;15.30;59.70
19060;DHT22;9663;48.996;8.334;2022-12-29T03:35:14;15.20;59.60
19060;DHT22;9663;48.996;8.334;2022-12-29T03:38:06;14.90;59.40
19060;DHT22;9663;48.996;8.334;2022-12-29T03:40:38;14.80;59.20
19060;DHT22;9663;48.996;8.334;2022-12-29T03:43:07;15.30;59.40
19060;DHT22;9663;48.996;8.334;2022-12-29T03:45:33;15.20;59.50
19060;DHT22;9663;48.996;8.334;2022-12-29T03:47:59;15.70;59.60
19060;DHT22;9663;48.996;8.334;2022-12-29T03:50:25;14.70;58.90
19060;DHT22;9663;48.996;8.334;2022-12-29T03:52:51;15.00;59.00
19060;DHT22;9663;48.996;8.334;2022-12-29T03:55:16;15.20;59.20
19060;DHT22;9663;48.996;8.334;2022-12-29T03:57:42;14.90;59.10
19060;DHT22;9663;48.996;8.334;2022-12-29T04:00:08;15.10;59.10
19060;DHT22;9663;48.996;8.334;2022-12-29T04:02:34;14.70;59.00
19060;DHT22;9663;48.996;8.334;2022-12-29T04:05:00;14.80;59.20
19060;DHT22;9663;48.996;8.334;2022-12-29T04:07:25;14.60;59.20
19060;DHT22;9663;48.996;8.334;2022-12-29T04:09:51;14.70;59.30
19060;DHT22;9663;48.996;8.334;2022-12-29T04:12:17;14.70;59.30
19060;DHT22;9663;48.996;8.334;2022-12-29T04:14:42;15.70;59.80
19060;DHT22;9663;48.996;8.334;2022-12-29T04:17:08;14.80;59.40
19060;DHT22;9663;48.996;8.334;2022-12-29T04:19:34;14.70;59.30
19060;DHT22;9663;48.996;8.334;2022-12-29T04:21:59;15.60;59.80
19060;DHT22;9663;48.996;8.334;2022-12-29T04:24:25;14.80;59.40
19060;DHT22;9663;48.996;8.334;2022-12-29T04:26:50;15.20;59.60
19060;DHT22;9663;48.996;8.334;2022-12-29T04:29:16;14.90;59.50
19060;DHT22;9663;48.996;8.334;2022-12-29T04:31:42;14.80;59.40
19060;DHT22;9663;48.996;8.334;2022-12-29T04:34:07;15.00;59.40
19060;DHT22;9663;48.996;8.334;2022-12-29T04:36:33;14.90;59.30
19060;DHT22;9663;48.996;8.334;2022-12-29T04:38:59;16.10;59.90
19060;DHT22;9663;48.996;8.334;2022-12-29T04:41:25;14.70;59.10
19060;DHT22;9663;48.996;8.334;2022-12-29T04:43:51;14.90;59.20
19060;DHT22;9663;48.996;8.334;2022-12-29T04:46:17;14.70;59.10
19060;DHT22;9663;48.996;8.334;2022-12-29T04:48:42;14.80;59.20
19060;DHT22;9663;48.996;8.334;2022-12-29T04:51:08;16.10;59.90
19060;DHT22;9663;48.996;8.334;2022-12-29T04:53:34;15.60;59.60
19060;DHT22;9663;48.996;8.334;2022-12-29T04:55:59;16.20;60.00
19060;DHT22;9663;48.996;8.334;2022-12-29T04:58:25;14.80;59.30
19060;DHT22;9663;48.996;8.334;2022-12-29T05:00:51;14.90;59.30
19060;DHT22;9663;48.996;8.334;2022-12-29T05:03:17;14.80;59.20
19060;DHT22;9663;48.996;8.334;2022-12-29T05:05:43;14.80;59.10
19060;DHT22;9663;48.996;8.334;2022-12-29T05:08:09;15.10;59.30
19060;DHT22;9663;48.996;8.334;2022-12-29T05:10:35;15.00;59.20
19060;DHT22;9663;48.996;8.334;2022-12-29T05:13:00;15.00;59.10
19060;DHT22;9663;48.996;8.334;2022-12-29T05:15:26;14.90;59.00
19060;DHT22;9663;48.996;8.334;2022-12-29T05:17:52;15.00;59.20
19060;DHT22;9663;48.996;8.334;2022-12-29T05:20:18;16.30;59.70
19060;DHT22;9663;48.996;8.334;2022-12-29T05:22:43;14.80;58.90
19060;DHT22;9663;48.996;8.334;2022-12-29T05:25:09;14.90;59.00
19060;DHT22;9663;48.996;8.334;2022-12-29T05:27:35;16.70;59.60
19060;DHT22;9663;48.996;8.334;2022-12-29T05:30:01;15.10;59.00
19060;DHT22;9663;48.996;8.334;2022-12-29T05:32:27;15.10;59.00
19060;DHT22;9663;48.996;8.334;2022-12-29T05:34:53;15.10;59.00
19060;DHT22;9663;48.996;8.334;2022-12-29T05:37:18;15.00;58.90
19060;DHT22;9663;48.996;8.334;2022-12-29T05:39:44;14.90;58.90
19060;DHT22;9663;48.996;8.334;2022-12-29T05:42:09;15.70;59.20
19060;DHT22;9663;48.996;8.334;2022-12-29T05:44:35;15.00;58.90
19060;DHT22;9663;48.996;8.334;2022-12-29T05:47:01;15.30;59.00
19060;DHT22;9663;48.996;8.334;2022-12-29T05:49:27;15.20;58.90
19060;DHT22;9663;48.996;8.334;2022-12-29T05:51:52;15.10;58.90
19060;DHT22;9663;48.996;8.334;2022-12-29T05:54:18;15.10;58.90
19060;DHT22;9663;48.996;8.334;2022-12-29T05:56:44;16.10;59.30
19060;DHT22;9663;48.996;8.334;2022-12-29T05:59:09;16.10;59.30
19060;DHT22;9663;48.996;8.334;2022-12-29T06:01:35;15.00;58.90
19060;DHT22;9663;48.996;8.334;2022-12-29T06:04:00;16.10;59.40
19060;DHT22;9663;48.996;8.334;2022-12-29T06:06:26;15.20;58.90
19060;DHT22;9663;48.996;8.334;2022-12-29T06:08:52;15.40;59.20
19060;DHT22;9663;48.996;8.334;2022-12-29T06:11:18;14.70;58.90
19060;DHT22;9663;48.996;8.334;2022-12-29T06:13:43;16.30;59.60
19060;DHT22;9663;48.996;8.334;2022-12-29T06:16:09;15.00;59.10
19060;DHT22;9663;48.996;8.334;2022-12-29T06:18:35;16.30;59.80
19060;DHT22;9663;48.996;8.334;2022-12-29T06:21:01;15.10;59.10
19060;DHT22;9663;48.996;8.334;2022-12-29T06:23:29;15.10;59.10
19060;DHT22;9663;48.996;8.334;2022-12-29T06:25:54;14.70;58.90
19060;DHT22;9663;48.996;8.334;2022-12-29T06:28:20;14.90;58.90
19060;DHT22;9663;48.996;8.334;2022-12-29T06:30:46;15.20;59.10
19060;DHT22;9663;48.996;8.334;2022-12-29T06:33:12;15.30;59.00
19060;DHT22;9663;48.996;8.334;2022-12-29T06:35:38;16.20;59.40
19060;DHT22;9663;48.996;8.334;2022-12-29T06:38:04;16.90;59.70
19060;DHT22;9663;48.996;8.334;2022-12-29T06:40:31;13.20;57.80
19060;DHT22;9663;48.996;8.334;2022-12-29T06:42:56;15.40;58.90
19060;DHT22;9663;48.996;8.334;2022-12-29T06:45:22;15.10;58.80
19060;DHT22;9663;48.996;8.334;2022-12-29T06:47:48;15.30;58.80
19060;DHT22;9663;48.996;8.334;2022-12-29T06:50:13;15.90;59.00
19060;DHT22;9663;48.996;8.334;2022-12-29T06:52:39;15.20;58.60
19060;DHT22;9663;48.996;8.334;2022-12-29T06:55:05;15.20;58.50
19060;DHT22;9663;48.996;8.334;2022-12-29T06:57:31;15.00;58.40
19060;DHT22;9663;48.996;8.334;2022-12-29T06:59:57;15.50;58.60
19060;DHT22;9663;48.996;8.334;2022-12-29T07:02:23;15.10;58.50
19060;DHT22;9663;48.996;8.334;2022-12-29T07:04:51;16.40;59.20
19060;DHT22;9663;48.996;8.334;2022-12-29T07:07:21;16.20;59.10
19060;DHT22;9663;48.996;8.334;2022-12-29T07:09:47;15.20;58.30
19060;DHT22;9663;48.996;8.334;2022-12-29T07:12:12;15.00;58.50
19060;DHT22;9663;48.996;8.334;2022-12-29T07:14:38;15.50;58.70
19060;DHT22;9663;48.996;8.334;2022-12-29T07:17:04;15.60;58.50
19060;DHT22;9663;48.996;8.334;2022-12-29T07:19:32;15.00;58.30
19060;DHT22;9663;48.996;8.334;2022-12-29T07:21:58;15.10;58.30
19060;DHT22;9663;48.996;8.334;2022-12-29T07:24:24;15.70;58.60
19060;DHT22;9663;48.996;8.334;2022-12-29T07:26:53;15.00;58.20
19060;DHT22;9663;48.996;8.334;2022-12-29T07:29:19;15.00;58.20
19060;DHT22;9663;48.996;8.334;2022-12-29T07:31:44;15.20;58.20
19060;DHT22;9663;48.996;8.334;2022-12-29T07:34:10;15.20;58.20
19060;DHT22;9663;48.996;8.334;2022-12-29T07:36:36;15.10;58.10
19060;DHT22;9663;48.996;8.334;2022-12-29T07:39:02;15.40;58.30
19060;DHT22;9663;48.996;8.334;2022-12-29T07:41:28;15.10;58.10
19060;DHT22;9663;48.996;8.334;2022-12-29T07:43:54;16.70;58.90
19060;DHT22;9663;48.996;8.334;2022-12-29T07:46:20;16.70;59.00
19060;DHT22;9663;48.996;8.334;2022-12-29T07:48:46;15.50;58.30
19060;DHT22;9663;48.996;8.334;2022-12-29T07:51:12;15.30;58.10
19060;DHT22;9663;48.996;8.334;2022-12-29T07:53:37;15.50;58.20
19060;DHT22;9663;48.996;8.334;2022-12-29T07:56:03;17.20;58.70
19060;DHT22;9663;48.996;8.334;2022-12-29T07:58:29;15.20;57.70
19060;DHT22;9663;48.996;8.334;2022-12-29T08:00:55;15.60;57.90
19060;DHT22;9663;48.996;8.334;2022-12-29T08:03:22;15.50;57.80
19060;DHT22;9663;48.996;8.334;2022-12-29T08:05:48;15.80;57.90
19060;DHT22;9663;48.996;8.334;2022-12-29T08:08:14;16.50;58.30
19060;DHT22;9663;48.996;8.334;2022-12-29T08:10:40;16.10;58.10
19060;DHT22;9663;48.996;8.334;2022-12-29T08:13:06;15.70;57.80
19060;DHT22;9663;48.996;8.334;2022-12-29T08:15:31;16.90;58.50
19060;DHT22;9663;48.996;8.334;2022-12-29T08:17:57;15.30;57.50
19060;DHT22;9663;48.996;8.334;2022-12-29T08:20:23;15.90;57.70
19060;DHT22;9663;48.996;8.334;2022-12-29T08:22:48;15.50;57.50
19060;DHT22;9663;48.996;8.334;2022-12-29T08:25:14;17.50;58.40
19060;DHT22;9663;48.996;8.334;2022-12-29T08:27:39;15.50;57.50
19060;DHT22;9663;48.996;8.334;2022-12-29T08:30:06;16.90;58.20
19060;DHT22;9663;48.996;8.334;2022-12-29T08:32:33;15.90;57.60
19060;DHT22;9663;48.996;8.334;2022-12-29T08:34:59;15.60;57.50
19060;DHT22;9663;48.996;8.334;2022-12-29T08:37:25;15.60;57.30
19060;DHT22;9663;48.996;8.334;2022-12-29T08:39:50;15.80;57.30
19060;DHT22;9663;48.996;8.334;2022-12-29T08:42:16;15.90;57.40
19060;DHT22;9663;48.996;8.334;2022-12-29T08:44:41;15.90;57.30
19060;DHT22;9663;48.996;8.334;2022-12-29T08:47:09;17.70;58.10
19060;DHT22;9663;48.996;8.334;2022-12-29T08:49:36;16.20;57.30
19060;DHT22;9663;48.996;8.334;2022-12-29T08:52:02;15.80;57.20
19060;DHT22;9663;48.996;8.334;2022-12-29T08:54:27;16.10;57.10
19060;DHT22;9663;48.996;8.334;2022-12-29T08:56:53;15.90;57.10
19060;DHT22;9663;48.996;8.334;2022-12-29T08:59:19;16.20;56.90
19060;DHT22;9663;48.996;8.334;2022-12-29T09:01:45;16.90;57.40
19060;DHT22;9663;48.996;8.334;2022-12-29T09:04:10;15.90;56.90
19060;DHT22;9663;48.996;8.334;2022-12-29T09:06:37;16.10;57.00
19060;DHT22;9663;48.996;8.334;2022-12-29T09:09:03;16.30;56.90
19060;DHT22;9663;48.996;8.334;2022-12-29T09:11:28;15.80;56.80
19060;DHT22;9663;48.996;8.334;2022-12-29T09:13:54;16.30;56.90
19060;DHT22;9663;48.996;8.334;2022-12-29T09:16:22;16.20;57.00
19060;DHT22;9663;48.996;8.334;2022-12-29T09:18:49;16.40;57.00
19060;DHT22;9663;48.996;8.334;2022-12-29T09:21:15;16.30;57.10
19060;DHT22;9663;48.996;8.334;2022-12-29T09:23:41;16.30;56.70
19060;DHT22;9663;48.996;8.334;2022-12-29T09:26:07;17.30;57.30
19060;DHT22;9663;48.996;8.334;2022-12-29T09:28:33;17.10;57.20
19060;DHT22;9663;48.996;8.334;2022-12-29T09:30:59;17.40;57.50
19060;DHT22;9663;48.996;8.334;2022-12-29T09:33:26;17.40;57.40
19060;DHT22;9663;48.996;8.334;2022-12-29T09:35:56;16.60;57.00
19060;DHT22;9663;48.996;8.334;2022-12-29T09:38:25;17.20;57.00
19060;DHT22;9663;48.996;8.334;2022-12-29T09:41:05;16.80;56.70
19060;DHT22;9663;48.996;8.334;2022-12-29T09:44:08;16.90;56.50
19060;DHT22;9663;48.996;8.334;2022-12-29T09:46:48;16.70;56.10
19060;DHT22;9663;48.996;8.334;2022-12-29T09:49:43;16.70;56.20
19060;DHT22;9663;48.996;8.334;2022-12-29T09:52:26;16.90;56.10
19060;DHT22;9663;48.996;8.334;2022-12-29T09:55:00;16.70;56.00
19060;DHT22;9663;48.996;8.334;2022-12-29T10:00:20;17.50;56.50
19060;DHT22;9663;48.996;8.334;2022-12-29T10:03:02;17.20;56.60
19060;DHT22;9663;48.996;8.334;2022-12-29T10:11:46;18.00;56.50
19060;DHT22;9663;48.996;8.334;2022-12-29T10:23:25;17.00;56.70
19060;DHT22;9663;48.996;8.334;2022-12-29T10:26:15;16.30;56.40
19060;DHT22;9663;48.996;8.334;2022-12-29T10:28:57;16.30;56.60
19060;DHT22;9663;48.996;8.334;2022-12-29T10:31:43;16.50;56.80
19060;DHT22;9663;48.996;8.334;2022-12-29T10:34:24;16.40;57.00
19060;DHT22;9663;48.996;8.334;2022-12-29T10:37:17;18.30;58.30
19060;DHT22;9663;48.996;8.334;2022-12-29T10:40:18;16.20;57.20
19060;DHT22;9663;48.996;8.334;2022-12-29T10:42:53;16.50;57.40
19060;DHT22;9663;48.996;8.334;2022-12-29T10:45:23;16.30;57.30
19060;DHT22;9663;48.996;8.334;2022-12-29T10:48:47;17.60;58.00
19060;DHT22;9663;48.996;8.334;2022-12-29T10:51:11;16.30;57.10
19060;DHT22;9663;48.996;8.334;2022-12-29T10:56:50;16.10;57.00
19060;DHT22;9663;48.996;8.334;2022-12-29T10:59:28;16.40;57.30
19060;DHT22;9663;48.996;8.334;2022-12-29T11:05:06;16.60;57.30
19060;DHT22;9663;48.996;8.334;2022-12-29T11:07:47;16.60;57.20
19060;DHT22;9663;48.996;8.334;2022-12-29T11:10:38;16.90;58.20
19060;DHT22;9663;48.996;8.334;2022-12-29T11:13:16;16.80;57.30
19060;DHT22;9663;48.996;8.334;2022-12-29T11:15:48;16.90;57.30
19060;DHT22;9663;48.996;8.334;2022-12-29T11:18:33;17.30;57.50
19060;DHT22;9663;48.996;8.334;2022-12-29T11:21:10;17.00;56.90
19060;DHT22;9663;48.996;8.334;2022-12-29T11:24:00;17.10;57.10
19060;DHT22;9663;48.996;8.334;2022-12-29T11:26:29;17.70;57.10
19060;DHT22;9663;48.996;8.334;2022-12-29T11:31:42;18.30;55.90
19060;DHT22;9663;48.996;8.334;2022-12-29T11:34:15;18.80;55.80
19060;DHT22;9663;48.996;8.334;2022-12-29T11:36:43;19.20;55.60
19060;DHT22;9663;48.996;8.334;2022-12-29T11:39:27;19.40;55.10
19060;DHT22;9663;48.996;8.334;2022-12-29T11:41:54;19.60;53.80
19060;DHT22;9663;48.996;8.334;2022-12-29T11:44:23;19.60;53.60
19060;DHT22;9663;48.996;8.334;2022-12-29T11:46:51;19.70;53.70
19060;DHT22;9663;48.996;8.334;2022-12-29T11:49:23;19.30;53.80
19060;DHT22;9663;48.996;8.334;2022-12-29T11:51:52;19.30;53.70
19060;DHT22;9663;48.996;8.334;2022-12-29T11:54:29;19.10;54.10
19060;DHT22;9663;48.996;8.334;2022-12-29T11:57:07;19.00;54.10
19060;DHT22;9663;48.996;8.334;2022-12-29T11:59:40;18.80;54.30
19060;DHT22;9663;48.996;8.334;2022-12-29T12:02:39;18.80;54.50
19060;DHT22;9663;48.996;8.334;2022-12-29T12:08:16;18.50;54.20
19060;DHT22;9663;48.996;8.334;2022-12-29T12:11:11;18.40;54.00
19060;DHT22;9663;48.996;8.334;2022-12-29T12:16:41;18.90;54.50
19060;DHT22;9663;48.996;8.334;2022-12-29T12:19:34;18.60;54.10
19060;DHT22;9663;48.996;8.334;2022-12-29T12:22:26;18.70;53.90
19060;DHT22;9663;48.996;8.334;2022-12-29T12:25:19;18.70;53.60
19060;DHT22;9663;48.996;8.334;2022-12-29T12:30:43;18.20;53.20
19060;DHT22;9663;48.996;8.334;2022-12-29T12:33:27;18.20;53.80
19060;DHT22;9663;48.996;8.334;2022-12-29T12:36:06;18.10;54.00
19060;DHT22;9663;48.996;8.334;2022-12-29T12:50:59;17.40;54.50
19060;DHT22;9663;48.996;8.334;2022-12-29T12:56:44;17.20;54.90
19060;DHT22;9663;48.996;8.334;2022-12-29T12:59:19;16.80;55.00
19060;DHT22;9663;48.996;8.334;2022-12-29T13:02:27;17.00;55.10
19060;DHT22;9663;48.996;8.334;2022-12-29T13:25:51;17.10;55.30
19060;DHT22;9663;48.996;8.334;2022-12-29T13:34:53;16.80;55.50
19060;DHT22;9663;48.996;8.334;2022-12-29T13:37:31;16.50;55.40
19060;DHT22;9663;48.996;8.334;2022-12-29T13:40:10;16.80;55.70
19060;DHT22;9663;48.996;8.334;2022-12-29T13:42:41;16.50;55.70
19060;DHT22;9663;48.996;8.334;2022-12-29T13:45:16;16.50;55.90
19060;DHT22;9663;48.996;8.334;2022-12-29T13:47:59;16.20;56.00
19060;DHT22;9663;48.996;8.334;2022-12-29T13:50:35;16.10;56.20
19060;DHT22;9663;48.996;8.334;2022-12-29T13:56:17;15.90;56.90
19060;DHT22;9663;48.996;8.334;2022-12-29T14:01:41;15.30;56.30
19060;DHT22;9663;48.996;8.334;2022-12-29T14:04:21;15.60;57.20
19060;DHT22;9663;48.996;8.334;2022-12-29T14:07:03;15.10;57.00
19060;DHT22;9663;48.996;8.334;2022-12-29T14:12:41;14.50;57.80
19060;DHT22;9663;48.996;8.334;2022-12-29T14:17:38;13.80;58.50
19060;DHT22;9663;48.996;8.334;2022-12-29T14:20:22;14.30;59.00
19060;DHT22;9663;48.996;8.334;2022-12-29T14:23:00;14.10;59.50
19060;DHT22;9663;48.996;8.334;2022-12-29T14:28:43;13.70;60.20
19060;DHT22;9663;48.996;8.334;2022-12-29T14:36:53;13.30;61.30
19060;DHT22;9663;48.996;8.334;2022-12-29T14:39:43;13.30;61.00
19060;DHT22;9663;48.996;8.334;2022-12-29T14:44:53;13.30;61.50
19060;DHT22;9663;48.996;8.334;2022-12-29T14:47:40;13.20;61.90
19060;DHT22;9663;48.996;8.334;2022-12-29T14:50:15;12.80;62.30
19060;DHT22;9663;48.996;8.334;2022-12-29T14:52:56;13.00;61.70
19060;DHT22;9663;48.996;8.334;2022-12-29T14:55:46;12.90;61.80
19060;DHT22;9663;48.996;8.334;2022-12-29T15:00:57;13.10;62.30
19060;DHT22;9663;48.996;8.334;2022-12-29T15:03:30;12.80;61.90
19060;DHT22;9663;48.996;8.334;2022-12-29T15:06:03;13.00;62.30
19060;DHT22;9663;48.996;8.334;2022-12-29T15:08:47;13.10;62.00
19060;DHT22;9663;48.996;8.334;2022-12-29T15:11:44;12.90;62.90
19060;DHT22;9663;48.996;8.334;2022-12-29T15:16:54;13.80;63.30
19060;DHT22;9663;48.996;8.334;2022-12-29T15:19:25;13.00;62.20
19060;DHT22;9663;48.996;8.334;2022-12-29T15:21:53;12.90;62.50
19060;DHT22;9663;48.996;8.334;2022-12-29T15:24:20;13.90;62.90
19060;DHT22;9663;48.996;8.334;2022-12-29T15:26:50;12.80;62.10
19060;DHT22;9663;48.996;8.334;2022-12-29T15:29:38;13.10;62.50
19060;DHT22;9663;48.996;8.334;2022-12-29T15:32:43;13.50;63.30
19060;DHT22;9663;48.996;8.334;2022-12-29T15:37:52;12.80;62.60
19060;DHT22;9663;48.996;8.334;2022-12-29T15:40:29;13.50;62.50
19060;DHT22;9663;48.996;8.334;2022-12-29T15:46:06;12.90;62.80
19060;DHT22;9663;48.996;8.334;2022-12-29T15:48:32;12.90;62.30
19060;DHT22;9663;48.996;8.334;2022-12-29T15:50:58;12.70;62.20
19060;DHT22;9663;48.996;8.334;2022-12-29T15:53:31;13.90;63.00
19060;DHT22;9663;48.996;8.334;2022-12-29T15:56:01;13.00;62.80
19060;DHT22;9663;48.996;8.334;2022-12-29T15:58:46;12.90;62.70
19060;DHT22;9663;48.996;8.334;2022-12-29T16:01:31;13.00;62.90
19060;DHT22;9663;48.996;8.334;2022-12-29T16:04:06;12.90;63.20
19060;DHT22;9663;48.996;8.334;2022-12-29T16:06:36;13.90;63.50
19060;DHT22;9663;48.996;8.334;2022-12-29T16:11:55;12.80;62.60
19060;DHT22;9663;48.996;8.334;2022-12-29T16:14:42;13.10;62.80
19060;DHT22;9663;48.996;8.334;2022-12-29T16:17:14;13.00;63.00
19060;DHT22;9663;48.996;8.334;2022-12-29T16:20:37;13.40;63.20
19060;DHT22;9663;48.996;8.334;2022-12-29T16:22:56;12.90;63.10
19060;DHT22;9663;48.996;8.334;2022-12-29T16:25:31;12.90;62.80
19060;DHT22;9663;48.996;8.334;2022-12-29T16:28:02;13.50;63.60
19060;DHT22;9663;48.996;8.334;2022-12-29T16:30:39;13.00;62.90
19060;DHT22;9663;48.996;8.334;2022-12-29T16:33:05;12.80;62.80
19060;DHT22;9663;48.996;8.334;2022-12-29T16:38:20;12.80;63.60
19060;DHT22;9663;48.996;8.334;2022-12-29T16:40:55;13.10;63.30
19060;DHT22;9663;48.996;8.334;2022-12-29T16:43:27;13.60;63.80
19060;DHT22;9663;48.996;8.334;2022-12-29T16:48:28;13.10;63.30
19060;DHT22;9663;48.996;8.334;2022-12-29T16:51:05;13.50;63.60
19060;DHT22;9663;48.996;8.334;2022-12-29T16:53:40;13.10;63.80
19060;DHT22;9663;48.996;8.334;2022-12-29T16:56:22;13.20;63.30
19060;DHT22;9663;48.996;8.334;2022-12-29T16:59:17;12.80;63.60
19060;DHT22;9663;48.996;8.334;2022-12-29T17:01:46;13.00;63.30
19060;DHT22;9663;48.996;8.334;2022-12-29T17:04:13;13.20;63.30
19060;DHT22;9663;48.996;8.334;2022-12-29T17:06:40;13.10;63.50
19060;DHT22;9663;48.996;8.334;2022-12-29T17:09:27;13.10;63.20
19060;DHT22;9663;48.996;8.334;2022-12-29T17:11:58;13.10;63.80
19060;DHT22;9663;48.996;8.334;2022-12-29T17:14:37;13.20;63.30
19060;DHT22;9663;48.996;8.334;2022-12-29T17:17:13;13.10;63.50
19060;DHT22;9663;48.996;8.334;2022-12-29T17:19:45;13.20;63.50
19060;DHT22;9663;48.996;8.334;2022-12-29T17:24:50;12.90;63.30
19060;DHT22;9663;48.996;8.334;2022-12-29T17:27:30;13.00;63.20
19060;DHT22;9663;48.996;8.334;2022-12-29T17:30:31;13.00;63.50
19060;DHT22;9663;48.996;8.334;2022-12-29T17:33:10;13.00;63.60
19060;DHT22;9663;48.996;8.334;2022-12-29T17:35:39;13.10;63.70
19060;DHT22;9663;48.996;8.334;2022-12-29T17:38:33;13.50;63.60
19060;DHT22;9663;48.996;8.334;2022-12-29T17:41:00;13.20;64.30
19060;DHT22;9663;48.996;8.334;2022-12-29T17:43:26;13.40;63.50
19060;DHT22;9663;48.996;8.334;2022-12-29T17:45:54;12.90;63.30
19060;DHT22;9663;48.996;8.334;2022-12-29T17:48:21;12.90;63.40
19060;DHT22;9663;48.996;8.334;2022-12-29T17:50:50;12.90;63.50
19060;DHT22;9663;48.996;8.334;2022-12-29T17:53:23;13.00;63.60
19060;DHT22;9663;48.996;8.334;2022-12-29T17:55:50;13.20;63.80
19060;DHT22;9663;48.996;8.334;2022-12-29T17:58:27;12.90;63.60
19060;DHT22;9663;48.996;8.334;2022-12-29T18:00:56;13.50;64.30
19060;DHT22;9663;48.996;8.334;2022-12-29T18:03:34;12.80;63.60
19060;DHT22;9663;48.996;8.334;2022-12-29T18:06:02;12.90;63.50
19060;DHT22;9663;48.996;8.334;2022-12-29T18:08:31;12.80;63.50
19060;DHT22;9663;48.996;8.334;2022-12-29T18:10:57;12.90;63.50
19060;DHT22;9663;48.996;8.334;2022-12-29T18:13:26;12.90;63.80
19060;DHT22;9663;48.996;8.334;2022-12-29T18:15:55;13.60;64.10
19060;DHT22;9663;48.996;8.334;2022-12-29T18:18:26;13.00;63.80
19060;DHT22;9663;48.996;8.334;2022-12-29T18:20:57;12.50;63.60
19060;DHT22;9663;48.996;8.334;2022-12-29T18:28:26;12.90;63.80
19060;DHT22;9663;48.996;8.334;2022-12-29T18:30:52;12.80;63.60
19060;DHT22;9663;48.996;8.334;2022-12-29T18:33:21;12.80;63.70
19060;DHT22;9663;48.996;8.334;2022-12-29T18:35:51;13.00;63.70
19060;DHT22;9663;48.996;8.334;2022-12-29T18:38:21;12.80;63.80
19060;DHT22;9663;48.996;8.334;2022-12-29T18:40:48;12.80;63.60
19060;DHT22;9663;48.996;8.334;2022-12-29T18:43:14;13.40;64.00
19060;DHT22;9663;48.996;8.334;2022-12-29T18:45:41;14.90;65.10
19060;DHT22;9663;48.996;8.334;2022-12-29T18:48:11;12.90;63.70
19060;DHT22;9663;48.996;8.334;2022-12-29T18:50:40;13.80;64.30
19060;DHT22;9663;48.996;8.334;2022-12-29T18:53:06;12.80;63.80